Time;durP1;ratioP1;P1;durP2;ratioP2;P2;SDS_P1;SDS_P2;PMS_P1;PMS_P2;Temp;Humidity;BMP_temperature;BMP_pressure;BME280_temperature;BME280_humidity;BME280_pressure;Samples;Min_cycle;Max_cycle;Signal;HPM_P1;HPM_P2
2021/07/22 00:00:53;;;;;;;10.93;8.40;;;;;;;;;;5013864;28;20023;-81
2021/07/22 00:03:19;;;;;;;15.45;9.73;;;;;;;;;;4997273;28;20030;-80
2021/07/22 00:05:45;;;;;;;12.77;9.35;;;;;;;;;;5016402;28;20094;-78
2021/07/22 00:08:11;;;;;;;13.05;9.20;;;;;;;;;;4999789;28;20030;-79
2021/07/22 00:10:41;;;;;;;12.00;9.43;;;;;;;;;;4999141;28;20057;-78
2021/07/22 00:13:07;;;;;;;11.40;9.30;;;;;;;;;;5010757;28;20034;-81
2021/07/22 00:15:34;;;;;;;9.63;8.13;;;;;;;;;;5000860;28;20054;-81
2021/07/22 00:18:03;;;;;;;11.57;7.85;;;;;;;;;;5001361;28;20432;-81
2021/07/22 00:20:29;;;;;;;10.75;8.88;;;;;;;;;;5000422;28;20023;-81
2021/07/22 00:22:55;;;;;;;9.52;7.78;;;;;;;;;;4999899;28;20058;-82
2021/07/22 00:25:21;;;;;;;10.00;7.70;;;;;;;;;;5000513;28;20146;-82
2021/07/22 00:27:47;;;;;;;9.30;8.13;;;;;;;;;;4999656;28;20049;-82
2021/07/22 00:30:14;;;;;;;10.38;8.27;;;;;;;;;;4998986;28;20022;-82
2021/07/22 00:32:40;;;;;;;11.90;8.85;;;;;;;;;;5014973;28;20394;-80
2021/07/22 00:35:07;;;;;;;9.85;8.57;;;;;;;;;;4982394;28;20030;-81
2021/07/22 00:37:33;;;;;;;11.20;8.32;;;;;;;;;;4999373;28;20031;-81
2021/07/22 00:39:59;;;;;;;10.68;7.90;;;;;;;;;;4981837;28;20026;-81
2021/07/22 00:42:25;;;;;;;11.18;8.57;;;;;;;;;;4998875;28;20034;-81
2021/07/22 00:44:51;;;;;;;14.95;9.13;;;;;;;;;;4982189;28;20074;-81
2021/07/22 00:47:17;;;;;;;12.10;8.77;;;;;;;;;;4999607;28;20479;-81
2021/07/22 00:49:46;;;;;;;9.80;8.18;;;;;;;;;;5005723;28;20061;-80
2021/07/22 00:52:12;;;;;;;10.07;8.20;;;;;;;;;;5010062;28;20023;-79
2021/07/22 00:54:38;;;;;;;9.88;8.00;;;;;;;;;;5001314;28;20054;-81
2021/07/22 00:57:23;;;;;;;11.55;8.43;;;;;;;;;;5137984;27;20557;-81
2021/07/22 00:59:49;;;;;;;10.35;8.30;;;;;;;;;;5118011;28;20077;-81
2021/07/22 01:02:15;;;;;;;9.63;8.02;;;;;;;;;;5131143;27;20042;-81
2021/07/22 01:04:41;;;;;;;12.32;8.52;;;;;;;;;;5151453;27;20087;-81
2021/07/22 01:07:07;;;;;;;8.05;6.65;;;;;;;;;;5145472;28;20019;-81
2021/07/22 01:09:33;;;;;;;12.88;8.00;;;;;;;;;;5139070;28;20043;-79
2021/07/22 01:11:59;;;;;;;9.10;7.57;;;;;;;;;;5135266;28;20050;-80
2021/07/22 01:14:25;;;;;;;8.82;7.03;;;;;;;;;;5135051;28;20050;-80
2021/07/22 01:16:51;;;;;;;9.65;7.93;;;;;;;;;;5138123;28;20499;-81
2021/07/22 01:19:17;;;;;;;9.15;7.43;;;;;;;;;;5136106;28;20030;-81
2021/07/22 01:21:43;;;;;;;8.38;7.10;;;;;;;;;;5137165;28;20133;-81
2021/07/22 01:24:10;;;;;;;8.23;6.68;;;;;;;;;;5123259;28;20095;-80
2021/07/22 01:26:36;;;;;;;7.30;6.38;;;;;;;;;;5117825;28;20028;-80
2021/07/22 01:29:04;;;;;;;8.40;6.35;;;;;;;;;;5125391;28;20028;-79
2021/07/22 01:31:30;;;;;;;8.43;6.60;;;;;;;;;;5147105;27;20011;-80
2021/07/22 01:33:56;;;;;;;8.25;6.80;;;;;;;;;;5136925;27;20030;-80
2021/07/22 01:36:25;;;;;;;8.55;6.95;;;;;;;;;;5129615;28;20035;-79
2021/07/22 01:38:52;;;;;;;7.88;6.68;;;;;;;;;;5129198;28;20055;-79
2021/07/22 01:41:18;;;;;;;8.80;6.88;;;;;;;;;;5135716;28;20015;-79
2021/07/22 01:43:44;;;;;;;9.50;7.40;;;;;;;;;;5150903;28;20023;-80
2021/07/22 01:46:10;;;;;;;15.73;10.90;;;;;;;;;;5148906;28;20083;-79
2021/07/22 01:48:36;;;;;;;17.88;11.32;;;;;;;;;;5151658;27;20019;-79
2021/07/22 01:51:05;;;;;;;13.32;10.32;;;;;;;;;;5150924;27;20067;-79
2021/07/22 01:53:31;;;;;;;15.65;10.02;;;;;;;;;;5134657;28;20093;-80
2021/07/22 01:55:57;;;;;;;18.42;11.27;;;;;;;;;;5140416;28;20035;-80
2021/07/22 01:58:23;;;;;;;14.20;10.45;;;;;;;;;;5150619;28;20076;-79
2021/07/22 02:00:49;;;;;;;13.50;9.80;;;;;;;;;;5148928;28;20024;-80
2021/07/22 02:03:15;;;;;;;13.52;9.70;;;;;;;;;;5139328;27;20049;-80
2021/07/22 02:05:41;;;;;;;11.90;8.77;;;;;;;;;;5157861;27;20106;-81
2021/07/22 02:08:07;;;;;;;16.70;11.30;;;;;;;;;;5119841;28;20031;-81
2021/07/22 02:10:33;;;;;;;12.25;9.48;;;;;;;;;;5122912;28;20089;-79
2021/07/22 02:12:59;;;;;;;12.35;9.40;;;;;;;;;;5121902;28;20119;-81
2021/07/22 02:15:25;;;;;;;10.60;8.82;;;;;;;;;;5124401;28;20079;-82
2021/07/22 02:17:51;;;;;;;10.80;8.05;;;;;;;;;;5106960;28;20032;-82
2021/07/22 02:20:18;;;;;;;9.40;7.25;;;;;;;;;;5100887;28;20020;-82
2021/07/22 02:22:44;;;;;;;9.68;7.72;;;;;;;;;;5103343;28;20035;-82
2021/07/22 02:25:10;;;;;;;11.32;8.50;;;;;;;;;;5114639;28;20024;-81
2021/07/22 02:27:36;;;;;;;10.98;7.75;;;;;;;;;;5118396;28;20051;-82
2021/07/22 02:30:05;;;;;;;9.93;7.45;;;;;;;;;;5122068;28;20032;-82
2021/07/22 02:32:34;;;;;;;8.80;6.65;;;;;;;;;;5130461;27;20082;-81
2021/07/22 02:35:00;;;;;;;10.05;7.45;;;;;;;;;;5131029;27;20047;-82
2021/07/22 02:37:26;;;;;;;7.22;6.20;;;;;;;;;;5103502;28;20475;-82
2021/07/22 02:39:52;;;;;;;6.95;5.70;;;;;;;;;;5102806;28;20035;-81
2021/07/22 02:42:18;;;;;;;8.55;6.25;;;;;;;;;;5110073;28;20028;-83
2021/07/22 02:44:44;;;;;;;7.78;6.20;;;;;;;;;;5121665;28;20027;-82
2021/07/22 02:47:11;;;;;;;6.53;5.82;;;;;;;;;;5121302;28;20062;-82
2021/07/22 02:49:37;;;;;;;8.35;6.53;;;;;;;;;;5106846;28;20035;-82
2021/07/22 02:52:05;;;;;;;8.38;6.85;;;;;;;;;;5115241;28;20440;-81
2021/07/22 02:54:31;;;;;;;7.68;6.68;;;;;;;;;;5131243;28;20027;-79
2021/07/22 02:56:57;;;;;;;8.05;5.95;;;;;;;;;;5122706;28;20035;-80
2021/07/22 02:59:23;;;;;;;6.57;5.80;;;;;;;;;;5119937;28;20373;-80
2021/07/22 03:01:49;;;;;;;8.35;5.65;;;;;;;;;;5122042;28;20039;-81
2021/07/22 03:04:15;;;;;;;11.60;7.35;;;;;;;;;;5139637;27;20032;-79
2021/07/22 03:06:41;;;;;;;8.82;6.97;;;;;;;;;;5117441;28;20027;-78
2021/07/22 03:09:07;;;;;;;10.63;7.70;;;;;;;;;;5115399;28;20036;-78
2021/07/22 03:11:33;;;;;;;11.52;8.23;;;;;;;;;;5136637;28;20093;-80
2021/07/22 03:14:01;;;;;;;9.48;7.65;;;;;;;;;;5134775;28;20019;-80
2021/07/22 03:16:27;;;;;;;11.88;7.63;;;;;;;;;;5134051;28;20103;-79
2021/07/22 03:18:53;;;;;;;11.27;8.18;;;;;;;;;;5132212;28;20034;-80
2021/07/22 03:21:19;;;;;;;11.13;8.45;;;;;;;;;;5127967;28;20093;-81
2021/07/22 03:23:48;;;;;;;10.93;9.02;;;;;;;;;;5123730;28;20062;-81
2021/07/22 03:26:18;;;;;;;8.82;7.88;;;;;;;;;;5101499;28;20365;-80
2021/07/22 03:28:44;;;;;;;9.32;7.32;;;;;;;;;;5104625;28;20030;-81
2021/07/22 03:31:11;;;;;;;11.32;8.27;;;;;;;;;;5115124;27;20095;-80
2021/07/22 03:33:37;;;;;;;8.95;7.43;;;;;;;;;;5125375;27;20050;-81
2021/07/22 03:36:04;;;;;;;9.20;7.65;;;;;;;;;;5100312;28;20032;-81
2021/07/22 03:38:30;;;;;;;9.18;7.47;;;;;;;;;;5115535;28;20118;-84
2021/07/22 03:40:56;;;;;;;10.18;8.30;;;;;;;;;;5113667;28;20024;-80
2021/07/22 03:43:22;;;;;;;10.00;8.05;;;;;;;;;;5109594;28;20024;-81
2021/07/22 03:45:48;;;;;;;12.15;8.93;;;;;;;;;;5100534;28;20035;-82
2021/07/22 03:48:14;;;;;;;9.70;7.97;;;;;;;;;;5100614;28;20036;-81
2021/07/22 03:50:40;;;;;;;12.05;8.50;;;;;;;;;;5102013;28;20393;-82
2021/07/22 03:53:07;;;;;;;10.07;7.50;;;;;;;;;;5100329;28;20123;-82
2021/07/22 03:55:33;;;;;;;12.25;9.32;;;;;;;;;;5100513;28;20071;-81
2021/07/22 03:57:59;;;;;;;12.18;7.78;;;;;;;;;;5098461;28;20028;-82
2021/07/22 04:00:25;;;;;;;12.20;8.60;;;;;;;;;;5104203;28;20027;-80
2021/07/22 04:02:58;;;;;;;10.38;7.97;;;;;;;;;;5118541;27;20203;-80
2021/07/22 04:05:24;;;;;;;10.88;7.95;;;;;;;;;;5101091;28;20046;-81
2021/07/22 04:07:53;;;;;;;11.73;9.25;;;;;;;;;;5103787;28;20443;-81
2021/07/22 04:10:20;;;;;;;11.35;8.65;;;;;;;;;;5097953;28;20024;-81
2021/07/22 04:12:45;;;;;;;9.68;8.15;;;;;;;;;;5099377;28;20036;-81
2021/07/22 04:15:12;;;;;;;11.57;8.73;;;;;;;;;;5098819;28;20107;-80
2021/07/22 04:17:38;;;;;;;9.95;8.32;;;;;;;;;;5102033;28;20102;-80
2021/07/22 04:20:05;;;;;;;10.00;7.93;;;;;;;;;;5106928;28;20023;-80
2021/07/22 04:22:31;;;;;;;13.75;8.90;;;;;;;;;;5106710;28;20326;-82
2021/07/22 04:24:57;;;;;;;13.65;8.93;;;;;;;;;;5102037;28;20028;-82
2021/07/22 04:27:27;;;;;;;10.45;8.88;;;;;;;;;;5118815;28;20052;-83
2021/07/22 04:29:54;;;;;;;13.18;9.00;;;;;;;;;;5119037;28;20020;-82
2021/07/22 04:32:20;;;;;;;13.23;8.70;;;;;;;;;;5129062;27;20034;-81
2021/07/22 04:34:46;;;;;;;10.57;8.45;;;;;;;;;;5121447;27;20028;-81
2021/07/22 04:37:12;;;;;;;12.82;9.82;;;;;;;;;;5097599;28;20036;-80
2021/07/22 04:39:38;;;;;;;13.00;9.88;;;;;;;;;;5096401;28;20081;-81
2021/07/22 04:42:04;;;;;;;12.20;9.60;;;;;;;;;;5118700;28;20385;-81
2021/07/22 04:44:31;;;;;;;11.65;10.10;;;;;;;;;;5117079;28;20099;-81
2021/07/22 04:46:57;;;;;;;13.38;9.48;;;;;;;;;;5118146;28;20472;-82
2021/07/22 04:49:23;;;;;;;12.25;9.55;;;;;;;;;;5119196;28;20097;-81
2021/07/22 04:51:49;;;;;;;11.45;9.75;;;;;;;;;;5100784;28;20024;-81
2021/07/22 04:54:15;;;;;;;14.07;10.23;;;;;;;;;;5127683;28;20023;-81
2021/07/22 04:56:41;;;;;;;10.98;8.88;;;;;;;;;;5107808;28;20031;-81
2021/07/22 04:59:07;;;;;;;11.30;9.50;;;;;;;;;;5118652;28;20422;-82
2021/07/22 05:01:33;;;;;;;14.60;10.00;;;;;;;;;;5121714;28;20026;-81
2021/07/22 05:04:00;;;;;;;12.77;10.05;;;;;;;;;;5129574;28;20023;-81
2021/07/22 05:06:26;;;;;;;17.42;10.80;;;;;;;;;;5137279;28;20479;-82
2021/07/22 05:08:52;;;;;;;15.50;9.80;;;;;;;;;;5136637;28;20051;-81
2021/07/22 05:11:18;;;;;;;12.38;10.13;;;;;;;;;;5121712;28;20079;-82
2021/07/22 05:13:45;;;;;;;11.30;9.45;;;;;;;;;;5115895;28;20156;-83
2021/07/22 05:16:11;;;;;;;11.88;9.40;;;;;;;;;;5116160;28;20027;-81
2021/07/22 05:18:38;;;;;;;10.77;8.77;;;;;;;;;;5102239;28;20361;-80
2021/07/22 05:21:05;;;;;;;9.43;7.97;;;;;;;;;;5105675;28;20433;-80
2021/07/22 05:23:31;;;;;;;9.30;8.25;;;;;;;;;;5107777;28;20119;-80
2021/07/22 05:25:57;;;;;;;9.90;8.10;;;;;;;;;;5107556;28;20046;-82
2021/07/22 05:28:23;;;;;;;9.68;7.43;;;;;;;;;;5126444;28;20019;-81
2021/07/22 05:30:49;;;;;;;8.35;7.20;;;;;;;;;;5120893;28;20433;-81
2021/07/22 05:33:15;;;;;;;8.27;7.25;;;;;;;;;;5122121;28;20118;-81
2021/07/22 05:35:41;;;;;;;8.25;7.35;;;;;;;;;;5134254;28;20027;-80
2021/07/22 05:38:07;;;;;;;7.50;6.80;;;;;;;;;;5128414;28;20079;-80
2021/07/22 05:40:33;;;;;;;8.27;7.40;;;;;;;;;;5120112;28;20364;-81
2021/07/22 05:42:59;;;;;;;9.50;7.70;;;;;;;;;;5114142;28;20469;-81
2021/07/22 05:45:25;;;;;;;7.20;6.45;;;;;;;;;;5102854;28;20119;-80
2021/07/22 05:47:51;;;;;;;8.82;6.65;;;;;;;;;;5102687;28;20068;-82
2021/07/22 05:50:17;;;;;;;8.80;6.93;;;;;;;;;;5120882;28;20086;-81
2021/07/22 05:52:43;;;;;;;7.72;6.95;;;;;;;;;;5120202;28;20031;-82
2021/07/22 05:55:10;;;;;;;8.73;7.82;;;;;;;;;;5114300;28;20114;-82
2021/07/22 05:57:36;;;;;;;9.15;7.75;;;;;;;;;;5123935;27;20031;-81
2021/07/22 06:00:03;;;;;;;8.70;7.80;;;;;;;;;;5138988;27;20126;-83
2021/07/22 06:02:29;;;;;;;11.77;8.55;;;;;;;;;;5121257;27;20472;-81
2021/07/22 06:04:55;;;;;;;8.82;7.75;;;;;;;;;;5128923;27;20083;-80
2021/07/22 06:07:22;;;;;;;8.70;7.88;;;;;;;;;;5123382;28;20031;-82
2021/07/22 06:09:48;;;;;;;9.07;7.95;;;;;;;;;;5117855;28;20024;-81
2021/07/22 06:12:14;;;;;;;8.85;7.95;;;;;;;;;;5117236;28;20051;-81
2021/07/22 06:14:40;;;;;;;11.05;9.02;;;;;;;;;;5120001;28;20106;-82
2021/07/22 06:17:06;;;;;;;7.63;6.93;;;;;;;;;;5101204;28;20024;-82
2021/07/22 06:19:32;;;;;;;8.65;7.75;;;;;;;;;;5099884;28;20024;-82
2021/07/22 06:21:58;;;;;;;8.52;7.82;;;;;;;;;;5117519;28;20031;-83
2021/07/22 06:24:24;;;;;;;9.77;7.78;;;;;;;;;;5119781;28;20545;-83
2021/07/22 06:26:50;;;;;;;9.05;8.13;;;;;;;;;;5126048;27;20098;-83
2021/07/22 06:29:16;;;;;;;8.90;8.00;;;;;;;;;;5139011;27;20057;-82
2021/07/22 06:31:42;;;;;;;9.30;8.38;;;;;;;;;;5147472;27;20057;-82
2021/07/22 06:34:08;;;;;;;10.13;9.13;;;;;;;;;;5133317;27;20476;-83
2021/07/22 06:36:34;;;;;;;10.75;9.65;;;;;;;;;;5113446;27;20028;-83
2021/07/22 06:39:00;;;;;;;11.48;9.20;;;;;;;;;;5101925;28;20092;-82
2021/07/22 06:41:29;;;;;;;10.23;9.13;;;;;;;;;;5111667;28;20027;-82
2021/07/22 06:43:55;;;;;;;11.32;9.20;;;;;;;;;;5120878;28;20028;-83
2021/07/22 06:46:21;;;;;;;10.80;9.70;;;;;;;;;;5128222;28;20029;-81
2021/07/22 06:48:49;;;;;;;10.00;8.85;;;;;;;;;;5135966;28;20127;-82
2021/07/22 06:51:15;;;;;;;10.88;9.52;;;;;;;;;;5121671;28;20024;-82
2021/07/22 06:53:42;;;;;;;9.80;8.88;;;;;;;;;;5100040;28;20480;-83
2021/07/22 06:56:08;;;;;;;9.85;8.85;;;;;;;;;;5105724;28;20049;-81
2021/07/22 06:58:36;;;;;;;10.90;9.75;;;;;;;;;;5128319;27;20024;-82
2021/07/22 07:01:02;;;;;;;10.35;9.25;;;;;;;;;;5111512;27;20020;-83
2021/07/22 07:03:28;;;;;;;10.20;9.05;;;;;;;;;;5127041;27;20026;-83
2021/07/22 07:06:24;;;;;;;9.77;8.77;;;;;;;;;;5114185;28;20167;-84
2021/07/22 07:08:50;;;;;;;10.77;9.68;;;;;;;;;;5093830;28;20412;-83
2021/07/22 07:11:16;;;;;;;10.35;9.25;;;;;;;;;;5130429;27;20019;-81
2021/07/22 07:13:42;;;;;;;11.55;10.35;;;;;;;;;;5141820;27;20494;-83
2021/07/22 07:16:08;;;;;;;14.30;9.40;;;;;;;;;;5124672;27;20103;-81
2021/07/22 07:18:38;;;;;;;17.17;11.95;;;;;;;;;;5109745;28;20012;-82
2021/07/22 07:21:05;;;;;;;12.38;11.07;;;;;;;;;;5109956;28;20031;-82
2021/07/22 07:23:32;;;;;;;14.10;11.40;;;;;;;;;;5116511;28;20134;-83
2021/07/22 07:25:58;;;;;;;12.63;10.82;;;;;;;;;;5120026;27;20031;-84
2021/07/22 07:28:24;;;;;;;13.57;11.63;;;;;;;;;;5131912;27;20029;-82
2021/07/22 07:30:50;;;;;;;13.88;11.02;;;;;;;;;;5132597;27;20028;-83
2021/07/22 07:33:16;;;;;;;14.57;11.77;;;;;;;;;;5137774;27;20065;-82
2021/07/22 07:35:42;;;;;;;11.73;10.10;;;;;;;;;;5117661;28;20493;-82
2021/07/22 07:38:08;;;;;;;12.35;10.30;;;;;;;;;;5100827;28;20031;-82
2021/07/22 07:40:35;;;;;;;12.05;10.05;;;;;;;;;;5103595;28;20039;-81
2021/07/22 07:43:01;;;;;;;13.48;11.05;;;;;;;;;;5120683;28;20080;-83
2021/07/22 07:45:29;;;;;;;14.05;12.32;;;;;;;;;;5118856;28;20080;-84
2021/07/22 07:47:56;;;;;;;13.80;11.27;;;;;;;;;;5099238;28;20028;-83
2021/07/22 07:50:22;;;;;;;16.75;11.43;;;;;;;;;;5100441;28;20380;-82
2021/07/22 07:52:49;;;;;;;16.52;11.88;;;;;;;;;;5099460;28;20102;-82
2021/07/22 07:55:15;;;;;;;16.05;11.63;;;;;;;;;;5102656;28;20036;-83
2021/07/22 07:57:41;;;;;;;12.02;10.55;;;;;;;;;;5123185;27;20015;-83
2021/07/22 08:00:08;;;;;;;17.27;10.95;;;;;;;;;;5136847;27;20023;-83
2021/07/22 08:02:38;;;;;;;12.40;10.40;;;;;;;;;;5126342;27;20019;-83
2021/07/22 08:05:04;;;;;;;20.80;12.60;;;;;;;;;;5114467;27;20023;-81
2021/07/22 08:07:30;;;;;;;11.82;9.82;;;;;;;;;;5118766;28;20427;-84
2021/07/22 08:09:56;;;;;;;12.40;10.13;;;;;;;;;;5116803;28;20085;-83
2021/07/22 08:12:25;;;;;;;13.57;10.10;;;;;;;;;;5119293;28;20023;-83
2021/07/22 08:14:54;;;;;;;13.95;11.05;;;;;;;;;;5118389;28;20206;-83
2021/07/22 08:17:26;;;;;;;13.70;10.98;;;;;;;;;;5109976;28;20038;-82
2021/07/22 08:19:58;;;;;;;13.10;10.75;;;;;;;;;;5104324;28;20028;-82
2021/07/22 08:22:25;;;;;;;16.23;10.93;;;;;;;;;;5097261;28;20080;-82
2021/07/22 08:24:54;;;;;;;16.67;11.48;;;;;;;;;;5113221;28;20028;-82
2021/07/22 08:27:26;;;;;;;13.27;11.25;;;;;;;;;;5138392;27;20011;-82
2021/07/22 08:29:53;;;;;;;14.25;9.85;;;;;;;;;;5142298;27;20074;-82
2021/07/22 08:32:20;;;;;;;16.15;10.77;;;;;;;;;;5132448;27;20384;-83
2021/07/22 08:34:46;;;;;;;14.35;9.93;;;;;;;;;;5121082;27;20035;-83
2021/07/22 08:37:12;;;;;;;12.18;10.18;;;;;;;;;;5120836;27;20322;-82
2021/07/22 08:39:39;;;;;;;10.45;8.90;;;;;;;;;;5119407;27;20035;-83
2021/07/22 08:42:06;;;;;;;13.20;10.55;;;;;;;;;;5121667;28;20396;-82
2021/07/22 08:44:32;;;;;;;11.05;9.45;;;;;;;;;;5120027;28;20058;-82
2021/07/22 08:46:59;;;;;;;14.02;10.50;;;;;;;;;;5120342;28;20057;-84
2021/07/22 08:49:31;;;;;;;14.55;10.60;;;;;;;;;;5113679;28;20095;-83
2021/07/22 08:51:58;;;;;;;13.40;10.02;;;;;;;;;;5099602;28;20485;-84
2021/07/22 08:54:25;;;;;;;11.93;9.95;;;;;;;;;;5101872;28;20046;-82
2021/07/22 08:56:51;;;;;;;10.98;9.35;;;;;;;;;;5117557;28;20028;-82
2021/07/22 08:59:18;;;;;;;14.82;9.75;;;;;;;;;;5125814;28;20031;-82
2021/07/22 09:01:45;;;;;;;14.13;10.73;;;;;;;;;;5125509;28;20011;-82
2021/07/22 09:04:11;;;;;;;13.38;9.63;;;;;;;;;;5111381;28;20028;-83
2021/07/22 09:06:37;;;;;;;14.50;10.27;;;;;;;;;;5096881;28;20032;-83
2021/07/22 09:09:16;;;;;;;11.20;9.02;;;;;;;;;;5097040;28;20076;-83
2021/07/22 09:11:52;;;;;;;13.38;10.68;;;;;;;;;;5098187;28;20039;-82
2021/07/22 09:14:18;;;;;;;13.52;9.57;;;;;;;;;;5105273;28;20032;-84
2021/07/22 09:17:04;;;;;;;11.38;8.93;;;;;;;;;;5107662;28;20016;-83
2021/07/22 09:19:31;;;;;;;12.13;10.27;;;;;;;;;;5120264;28;20031;-82
2021/07/22 09:21:57;;;;;;;12.15;9.70;;;;;;;;;;5138001;28;20012;-82
2021/07/22 09:24:23;;;;;;;17.92;10.75;;;;;;;;;;5118316;28;20016;-83
2021/07/22 09:26:52;;;;;;;13.20;9.05;;;;;;;;;;5108332;28;20512;-83
2021/07/22 09:29:22;;;;;;;12.40;9.50;;;;;;;;;;5122466;27;20039;-82
2021/07/22 09:31:51;;;;;;;13.05;10.40;;;;;;;;;;5125630;27;20027;-82
2021/07/22 09:34:30;;;;;;;12.65;9.68;;;;;;;;;;5132911;27;20028;-83
2021/07/22 09:37:07;;;;;;;10.48;9.38;;;;;;;;;;5103171;28;20056;-82
2021/07/22 09:39:37;;;;;;;11.23;9.15;;;;;;;;;;5105940;28;20019;-82
2021/07/22 09:42:03;;;;;;;11.65;9.98;;;;;;;;;;5122557;28;20020;-81
2021/07/22 09:44:33;;;;;;;16.27;11.55;;;;;;;;;;5134533;28;20031;-82
2021/07/22 09:47:00;;;;;;;13.48;9.35;;;;;;;;;;5129805;28;20081;-81
2021/07/22 09:49:32;;;;;;;13.00;10.05;;;;;;;;;;5118503;28;20032;-83
2021/07/22 09:52:02;;;;;;;11.70;9.70;;;;;;;;;;5104290;28;20028;-83
2021/07/22 09:54:46;;;;;;;12.15;9.82;;;;;;;;;;5099266;28;20036;-83
2021/07/22 09:57:16;;;;;;;11.88;9.25;;;;;;;;;;5109672;27;20035;-82
2021/07/22 09:59:46;;;;;;;10.88;9.32;;;;;;;;;;5121799;27;20027;-83
2021/07/22 10:02:17;;;;;;;16.33;10.65;;;;;;;;;;5121124;27;20034;-83
2021/07/22 10:04:44;;;;;;;11.17;9.57;;;;;;;;;;5129196;27;20072;-83
2021/07/22 10:07:11;;;;;;;11.50;10.20;;;;;;;;;;5118041;28;20266;-82
2021/07/22 10:09:38;;;;;;;13.68;9.82;;;;;;;;;;5117940;28;20020;-83
2021/07/22 10:12:04;;;;;;;13.10;9.85;;;;;;;;;;5137214;28;20383;-81
2021/07/22 10:14:30;;;;;;;13.85;9.38;;;;;;;;;;5136484;28;20093;-81
2021/07/22 10:16:59;;;;;;;11.93;10.25;;;;;;;;;;5135585;28;20023;-80
2021/07/22 10:19:25;;;;;;;10.40;9.38;;;;;;;;;;5116612;28;20039;-80
2021/07/22 10:21:52;;;;;;;11.13;9.98;;;;;;;;;;5116968;28;20024;-80
2021/07/22 10:24:20;;;;;;;11.13;10.00;;;;;;;;;;5133818;28;20036;-81
2021/07/22 10:26:47;;;;;;;12.15;9.63;;;;;;;;;;5135514;28;20078;-82
2021/07/22 10:29:13;;;;;;;13.00;10.07;;;;;;;;;;5145980;27;20062;-82
2021/07/22 10:31:46;;;;;;;11.93;10.30;;;;;;;;;;5140553;27;20068;-78
2021/07/22 10:34:12;;;;;;;14.48;10.55;;;;;;;;;;5145524;27;20032;-80
2021/07/22 10:36:43;;;;;;;14.15;10.13;;;;;;;;;;5135809;28;20049;-80
2021/07/22 10:39:09;;;;;;;13.55;9.95;;;;;;;;;;5134747;28;20054;-80
2021/07/22 10:41:40;;;;;;;11.93;10.52;;;;;;;;;;5131489;28;20070;-80
2021/07/22 10:44:07;;;;;;;11.70;10.18;;;;;;;;;;5123488;28;20019;-80
2021/07/22 10:46:51;;;;;;;13.68;11.00;;;;;;;;;;5113904;28;20028;-83
2021/07/22 10:49:17;;;;;;;11.48;9.98;;;;;;;;;;5108012;28;20031;-83
2021/07/22 10:51:45;;;;;;;12.02;9.98;;;;;;;;;;5123989;28;20046;-83
2021/07/22 10:54:31;;;;;;;12.05;10.18;;;;;;;;;;5125618;28;20024;-82
2021/07/22 10:56:57;;;;;;;11.85;10.23;;;;;;;;;;5117439;28;20028;-83
2021/07/22 10:59:43;;;;;;;11.27;10.18;;;;;;;;;;5131947;27;20012;-81
2021/07/22 11:02:09;;;;;;;11.95;9.75;;;;;;;;;;5120357;27;20103;-81
2021/07/22 11:04:35;;;;;;;13.32;10.27;;;;;;;;;;5150161;27;20052;-83
2021/07/22 11:07:01;;;;;;;10.90;9.80;;;;;;;;;;5145880;27;20027;-83
2021/07/22 11:09:47;;;;;;;11.63;10.43;;;;;;;;;;5145594;27;20031;-83
2021/07/22 11:12:31;;;;;;;13.25;10.02;;;;;;;;;;5122105;27;20357;-82
2021/07/22 11:14:59;;;;;;;15.73;10.77;;;;;;;;;;5102589;28;20115;-82
2021/07/22 11:17:32;;;;;;;11.30;10.20;;;;;;;;;;5102987;28;20454;-83
2021/07/22 11:20:17;;;;;;;10.45;9.45;;;;;;;;;;5107460;28;20040;-83
2021/07/22 11:22:44;;;;;;;11.32;10.05;;;;;;;;;;5122791;28;20026;-84
2021/07/22 11:25:10;;;;;;;15.02;10.85;;;;;;;;;;5116041;28;20024;-82
2021/07/22 11:27:49;;;;;;;13.90;10.50;;;;;;;;;;5123710;27;20020;-83
2021/07/22 11:30:19;;;;;;;12.60;10.80;;;;;;;;;;5127383;27;20032;-83
2021/07/22 11:32:45;;;;;;;14.40;10.48;;;;;;;;;;5124542;27;20084;-83
2021/07/22 11:35:12;;;;;;;12.38;10.35;;;;;;;;;;5124303;27;20039;-84
2021/07/22 11:37:39;;;;;;;14.02;10.73;;;;;;;;;;5126437;28;20019;-83
2021/07/22 11:40:11;;;;;;;11.93;10.65;;;;;;;;;;5122149;28;20035;-84
2021/07/22 11:42:47;;;;;;;11.38;10.20;;;;;;;;;;5117936;28;20095;-82
2021/07/22 11:45:13;;;;;;;11.70;10.23;;;;;;;;;;5115033;28;20095;-80
2021/07/22 11:47:39;;;;;;;10.95;9.85;;;;;;;;;;5117160;28;20588;-82
2021/07/22 11:50:06;;;;;;;11.45;10.25;;;;;;;;;;5114241;28;20096;-81
2021/07/22 11:52:32;;;;;;;12.88;10.07;;;;;;;;;;5125832;28;20054;-83
2021/07/22 11:55:05;;;;;;;15.30;10.75;;;;;;;;;;5121624;28;20349;-82
2021/07/22 11:57:36;;;;;;;11.77;9.70;;;;;;;;;;5123529;28;20015;-83
2021/07/22 12:00:34;;;;;;;11.68;10.40;;;;;;;;;;5124104;27;20121;-83
2021/07/22 12:03:00;;;;;;;11.07;9.93;;;;;;;;;;5096947;27;20060;-82
2021/07/22 12:05:26;;;;;;;12.13;10.63;;;;;;;;;;5122740;27;20016;-83
2021/07/22 12:08:14;;;;;;;15.70;10.55;;;;;;;;;;5124987;28;20160;-80
2021/07/22 12:10:41;;;;;;;14.18;10.20;;;;;;;;;;5130299;28;20001;-81
2021/07/22 12:13:11;;;;;;;11.43;10.27;;;;;;;;;;5116737;28;20031;-81
2021/07/22 12:15:38;;;;;;;11.63;10.40;;;;;;;;;;5118103;28;20024;-78
2021/07/22 12:18:04;;;;;;;12.05;10.80;;;;;;;;;;5118519;28;20034;-80
2021/07/22 12:20:31;;;;;;;16.58;10.77;;;;;;;;;;5105921;28;20055;-81
2021/07/22 12:22:57;;;;;;;11.23;10.13;;;;;;;;;;5113327;28;20022;-81
2021/07/22 12:25:26;;;;;;;11.73;10.38;;;;;;;;;;5116463;28;20039;-81
2021/07/22 12:27:53;;;;;;;12.88;10.40;;;;;;;;;;5117394;28;20015;-81
2021/07/22 12:30:19;;;;;;;13.90;11.65;;;;;;;;;;5126126;27;20024;-81
2021/07/22 12:32:52;;;;;;;13.52;10.77;;;;;;;;;;5128634;27;20062;-81
2021/07/22 12:35:41;;;;;;;11.15;10.05;;;;;;;;;;5120464;27;20080;-82
2021/07/22 12:38:08;;;;;;;13.20;11.10;;;;;;;;;;5100140;28;20016;-81
2021/07/22 12:40:58;;;;;;;11.63;10.43;;;;;;;;;;5101679;28;20040;-81
2021/07/22 12:43:26;;;;;;;12.73;9.98;;;;;;;;;;5100248;28;20043;-82
2021/07/22 12:45:53;;;;;;;21.20;10.43;;;;;;;;;;5100764;28;20048;-82
2021/07/22 12:48:41;;;;;;;11.80;10.60;;;;;;;;;;5099247;28;20020;-82
2021/07/22 12:51:11;;;;;;;12.57;11.27;;;;;;;;;;5115195;28;20027;-81
2021/07/22 12:53:37;;;;;;;11.90;10.35;;;;;;;;;;5123742;28;20028;-83
2021/07/22 12:56:04;;;;;;;11.05;9.95;;;;;;;;;;5113140;28;20069;-82
2021/07/22 12:58:40;;;;;;;10.77;9.68;;;;;;;;;;5124369;28;20015;-82
2021/07/22 13:01:06;;;;;;;13.85;11.20;;;;;;;;;;5120702;28;20064;-81
2021/07/22 13:03:33;;;;;;;11.75;10.38;;;;;;;;;;5123011;28;20071;-82
2021/07/22 13:06:00;;;;;;;10.30;9.10;;;;;;;;;;5120210;28;20050;-82
2021/07/22 13:08:26;;;;;;;19.70;10.30;;;;;;;;;;5118879;28;20023;-81
2021/07/22 13:10:53;;;;;;;12.45;10.25;;;;;;;;;;5118525;28;20028;-81
2021/07/22 13:13:19;;;;;;;13.38;9.63;;;;;;;;;;5118605;28;20606;-81
2021/07/22 13:15:45;;;;;;;11.20;10.10;;;;;;;;;;5117359;28;20453;-82
2021/07/22 13:18:14;;;;;;;11.20;9.88;;;;;;;;;;5117602;28;20063;-82
2021/07/22 13:20:40;;;;;;;12.05;9.70;;;;;;;;;;5118989;28;20022;-82
2021/07/22 13:23:07;;;;;;;11.65;10.00;;;;;;;;;;5118903;28;20023;-83
2021/07/22 13:25:33;;;;;;;11.35;10.15;;;;;;;;;;5119398;28;20019;-82
2021/07/22 13:27:59;;;;;;;10.48;9.48;;;;;;;;;;5118287;28;20035;-83
2021/07/22 13:30:25;;;;;;;12.10;10.77;;;;;;;;;;5118563;28;20024;-82
2021/07/22 13:32:51;;;;;;;13.95;10.75;;;;;;;;;;5117544;28;20095;-82
2021/07/22 13:35:17;;;;;;;12.80;10.93;;;;;;;;;;5118812;28;20162;-82
2021/07/22 13:37:43;;;;;;;12.68;10.32;;;;;;;;;;5119236;28;20032;-82
2021/07/22 13:40:10;;;;;;;11.35;9.95;;;;;;;;;;5118721;28;20031;-84
2021/07/22 13:42:37;;;;;;;11.82;10.25;;;;;;;;;;5117502;28;20031;-81
2021/07/22 13:45:04;;;;;;;11.75;9.93;;;;;;;;;;5119674;28;20358;-82
2021/07/22 13:47:30;;;;;;;10.77;9.73;;;;;;;;;;5117754;28;20176;-82
2021/07/22 13:49:56;;;;;;;13.18;10.55;;;;;;;;;;5118490;28;20019;-82
2021/07/22 13:52:24;;;;;;;12.30;9.80;;;;;;;;;;5111447;28;20036;-83
2021/07/22 13:54:52;;;;;;;10.35;9.35;;;;;;;;;;5097733;28;20067;-83
2021/07/22 13:57:18;;;;;;;10.93;9.40;;;;;;;;;;5096868;28;20092;-83
2021/07/22 13:59:44;;;;;;;12.05;9.88;;;;;;;;;;5120267;28;20024;-81
2021/07/22 14:02:10;;;;;;;13.73;9.95;;;;;;;;;;5123002;28;20482;-82
2021/07/22 14:04:39;;;;;;;11.68;9.48;;;;;;;;;;5129065;27;20062;-82
2021/07/22 14:07:08;;;;;;;11.63;9.68;;;;;;;;;;5101604;28;20417;-82
2021/07/22 14:09:40;;;;;;;12.48;10.30;;;;;;;;;;5106875;28;20031;-81
2021/07/22 14:12:15;;;;;;;13.38;10.57;;;;;;;;;;5102972;28;20024;-81
2021/07/22 14:14:44;;;;;;;10.57;9.20;;;;;;;;;;5125810;28;20034;-81
2021/07/22 14:17:10;;;;;;;10.82;9.52;;;;;;;;;;5137502;28;20085;-81
2021/07/22 14:19:36;;;;;;;10.63;9.40;;;;;;;;;;5129281;28;20032;-81
2021/07/22 14:22:02;;;;;;;12.43;10.30;;;;;;;;;;5123654;28;20563;-80
2021/07/22 14:24:28;;;;;;;13.15;9.77;;;;;;;;;;5108716;28;20059;-82
2021/07/22 14:26:57;;;;;;;11.10;9.00;;;;;;;;;;5102658;28;20089;-81
2021/07/22 14:29:24;;;;;;;11.30;9.75;;;;;;;;;;5114427;27;20030;-81
2021/07/22 14:31:51;;;;;;;11.60;9.23;;;;;;;;;;5134849;27;20019;-81